Time,TemperatureF,DewpointF,PressureIn,WindDirection,WindDirectionDegrees,WindSpeedMPH,WindSpeedGustMPH,Humidity,HourlyPrecipIn,Conditions,Clouds,dailyrainin,SoftwareType,DateUTC
2013-03-07 00:01:00,24.0,24.0,30.26,SE,137,6.0,7.0,99,0.00,,,0.00,,2013-03-07 06:01:00,
2013-03-07 00:11:00,24.0,24.0,30.26,SE,137,6.0,7.0,99,0.00,,,0.00,,2013-03-07 06:11:00,
2013-03-07 00:21:00,23.0,23.0,30.25,SE,137,3.0,7.0,99,0.00,,,0.00,,2013-03-07 06:21:00,
2013-03-07 00:31:00,23.0,23.0,30.24,ESE,121,7.0,10.0,99,0.00,,,0.00,,2013-03-07 06:31:00,
2013-03-07 00:41:00,23.0,23.0,30.23,SE,125,9.0,12.0,99,0.00,,,0.00,,2013-03-07 06:41:00,
2013-03-07 00:52:00,23.0,23.0,30.23,SE,125,9.0,12.0,99,0.00,,,0.00,,2013-03-07 06:52:00,
2013-03-07 01:01:00,23.0,23.0,30.24,SE,135,6.0,9.0,99,0.00,,,0.00,,2013-03-07 07:01:00,
2013-03-07 01:11:00,23.0,23.0,30.24,SE,135,6.0,9.0,99,0.00,,,0.00,,2013-03-07 07:11:00,
2013-03-07 01:21:00,22.0,22.0,30.24,SE,126,7.0,9.0,99,0.00,,,0.00,,2013-03-07 07:21:00,
2013-03-07 01:32:00,22.0,22.0,30.25,SE,127,6.0,9.0,99,0.00,,,0.00,,2013-03-07 07:32:00,
2013-03-07 01:42:00,22.0,22.0,30.25,SE,127,6.0,9.0,99,0.00,,,0.00,,2013-03-07 07:42:00,
2013-03-07 01:53:00,22.0,22.0,30.25,SE,136,7.0,10.0,99,0.00,,,0.00,,2013-03-07 07:53:00,
2013-03-07 02:02:00,22.0,22.0,30.25,ESE,123,6.0,8.0,99,0.00,,,0.00,,2013-03-07 08:02:00,
2013-03-07 02:12:00,22.0,22.0,30.25,ESE,123,6.0,8.0,99,0.00,,,0.00,,2013-03-07 08:12:00,
2013-03-07 02:33:00,22.0,22.0,30.25,SE,138,5.0,7.0,99,0.00,,,0.00,,2013-03-07 08:33:00,
2013-03-07 02:43:00,22.0,22.0,30.25,SE,138,5.0,7.0,99,0.00,,,0.00,,2013-03-07 08:43:00,
2013-03-07 02:54:00,22.0,22.0,30.24,SE,124,6.0,7.0,99,0.00,,,0.00,,2013-03-07 08:54:00,
2013-03-07 03:03:00,21.0,21.0,30.24,SE,129,7.0,10.0,99,0.00,,,0.00,,2013-03-07 09:03:00,
2013-03-07 03:12:00,21.0,21.0,30.24,SE,129,7.0,10.0,99,0.00,,,0.00,,2013-03-07 09:12:00,
2013-03-07 03:23:00,22.0,22.0,30.23,SE,125,7.0,12.0,99,0.00,,,0.00,,2013-03-07 09:23:00,
2013-03-07 03:32:00,21.0,21.0,30.23,SE,128,6.0,8.0,99,0.00,,,0.00,,2013-03-07 09:32:00,
2013-03-07 03:42:00,21.0,21.0,30.23,SE,128,6.0,8.0,99,0.00,,,0.00,,2013-03-07 09:42:00,
2013-03-07 03:53:00,21.0,21.0,30.23,SE,130,6.0,9.0,99,0.00,,,0.00,,2013-03-07 09:53:00,
2013-03-07 04:02:00,21.0,21.0,30.22,ESE,122,8.0,9.0,99,0.00,,,0.00,,2013-03-07 10:02:00,
2013-03-07 04:12:00,21.0,21.0,30.22,ESE,122,8.0,9.0,99,0.00,,,0.00,,2013-03-07 10:12:00,
2013-03-07 04:23:00,21.0,21.0,30.22,SE,125,8.0,13.0,99,0.00,,,0.00,,2013-03-07 10:23:00,
2013-03-07 04:32:00,21.0,21.0,30.22,SSE,154,8.0,9.0,99,0.00,,,0.00,,2013-03-07 10:32:00,
2013-03-07 04:42:00,21.0,21.0,30.22,SSE,154,8.0,9.0,99,0.00,,,0.00,,2013-03-07 10:42:00,
2013-03-07 04:53:00,21.0,21.0,30.22,SE,137,7.0,12.0,99,0.00,,,0.00,,2013-03-07 10:53:00,
2013-03-07 05:02:00,21.0,21.0,30.22,SE,140,7.0,9.0,99,0.00,,,0.00,,2013-03-07 11:02:00,
2013-03-07 05:12:00,21.0,21.0,30.22,SE,140,7.0,9.0,99,0.00,,,0.00,,2013-03-07 11:12:00,
2013-03-07 05:23:00,21.0,21.0,30.22,ESE,122,9.0,12.0,99,0.00,,,0.00,,2013-03-07 11:23:00,
2013-03-07 05:33:00,21.0,21.0,30.22,SE,125,7.0,10.0,99,0.00,,,0.00,,2013-03-07 11:33:00,
2013-03-07 05:42:00,21.0,21.0,30.22,SE,125,7.0,10.0,99,0.00,,,0.00,,2013-03-07 11:42:00,
2013-03-07 05:54:00,21.0,21.0,30.22,ESE,120,9.0,13.0,99,0.00,,,0.00,,2013-03-07 11:54:00,
2013-03-07 06:02:00,20.0,20.0,30.22,SE,140,7.0,8.0,99,0.00,,,0.00,,2013-03-07 12:02:00,
2013-03-07 06:12:00,20.0,20.0,30.22,SE,140,7.0,8.0,99,0.00,,,0.00,,2013-03-07 12:12:00,
2013-03-07 06:22:00,20.0,20.0,30.22,SE,133,7.0,14.0,99,0.00,,,0.00,,2013-03-07 12:22:00,
2013-03-07 06:33:00,20.0,20.0,30.22,SE,133,7.0,9.0,99,0.00,,,0.00,,2013-03-07 12:33:00,
2013-03-07 06:42:00,20.0,20.0,30.22,SE,133,7.0,9.0,99,0.00,,,0.00,,2013-03-07 12:42:00,
2013-03-07 06:53:00,20.0,20.0,30.23,SE,137,8.0,9.0,99,0.00,,,0.00,,2013-03-07 12:53:00,
2013-03-07 07:02:00,20.0,20.0,30.22,SE,128,7.0,12.0,99,0.00,,,0.00,,2013-03-07 13:02:00,
2013-03-07 07:12:00,20.0,20.0,30.22,SE,128,7.0,12.0,99,0.00,,,0.00,,2013-03-07 13:12:00,
2013-03-07 07:22:00,20.0,20.0,30.24,SE,144,8.0,10.0,99,0.00,,,0.00,,2013-03-07 13:22:00,
2013-03-07 07:32:00,20.0,20.0,30.24,SE,141,7.0,9.0,99,0.00,,,0.00,,2013-03-07 13:32:00,
2013-03-07 07:42:00,20.0,20.0,30.24,SE,141,7.0,9.0,99,0.00,,,0.00,,2013-03-07 13:42:00,
2013-03-07 07:53:00,20.0,20.0,30.23,SE,130,8.0,14.0,99,0.00,,,0.00,,2013-03-07 13:53:00,
2013-03-07 08:01:00,20.0,20.0,30.23,SE,132,9.0,12.0,99,0.00,,,0.00,,2013-03-07 14:01:00,
2013-03-07 08:12:00,20.0,20.0,30.23,SE,132,9.0,12.0,99,0.00,,,0.00,,2013-03-07 14:12:00,
2013-03-07 08:22:00,21.0,21.0,30.23,SE,136,7.0,14.0,99,0.00,,,0.00,,2013-03-07 14:22:00,
2013-03-07 08:32:00,22.0,22.0,30.22,SE,134,8.0,12.0,99,0.00,,,0.00,,2013-03-07 14:32:00,
2013-03-07 08:42:00,22.0,22.0,30.22,SE,134,8.0,12.0,99,0.00,,,0.00,,2013-03-07 14:42:00,
2013-03-07 08:54:00,23.0,23.0,30.22,SSE,149,10.0,16.0,98,0.00,,,0.00,,2013-03-07 14:54:00,
2013-03-07 09:02:00,23.0,22.0,30.21,SE,132,10.0,17.0,97,0.00,,,0.00,,2013-03-07 15:02:00,
2013-03-07 09:12:00,23.0,22.0,30.21,SE,132,10.0,17.0,97,0.00,,,0.00,,2013-03-07 15:12:00,
2013-03-07 09:22:00,24.0,23.0,30.21,SE,136,15.0,20.0,96,0.00,,,0.00,,2013-03-07 15:22:00,
2013-03-07 09:32:00,25.0,24.0,30.20,SE,139,7.0,13.0,95,0.00,,,0.00,,2013-03-07 15:32:00,
2013-03-07 09:42:00,25.0,24.0,30.20,SE,139,7.0,13.0,95,0.00,,,0.00,,2013-03-07 15:42:00,
2013-03-07 09:53:00,26.0,24.0,30.20,SSE,161,9.0,12.0,93,0.00,,,0.00,,2013-03-07 15:53:00,
2013-03-07 10:02:00,27.0,25.0,30.20,South,179,8.0,13.0,92,0.00,,,0.00,,2013-03-07 16:02:00,
2013-03-07 10:23:00,28.0,25.0,30.18,SSE,161,8.0,17.0,90,0.00,,,0.00,,2013-03-07 16:23:00,
2013-03-07 10:32:00,29.0,26.0,30.18,SSE,161,10.0,18.0,87,0.00,,,0.00,,2013-03-07 16:32:00,
2013-03-07 10:42:00,29.0,26.0,30.18,SSE,161,10.0,18.0,87,0.00,,,0.00,,2013-03-07 16:42:00,
2013-03-07 10:53:00,30.0,26.0,30.18,SSE,150,8.0,13.0,85,0.00,,,0.00,,2013-03-07 16:53:00,
2013-03-07 11:02:00,30.0,26.0,30.17,SSE,150,10.0,14.0,85,0.00,,,0.00,,2013-03-07 17:02:00,
2013-03-07 11:12:00,30.0,26.0,30.17,SSE,150,10.0,14.0,85,0.00,,,0.00,,2013-03-07 17:12:00,
2013-03-07 11:22:00,31.0,26.0,30.17,SE,138,12.0,16.0,82,0.00,,,0.00,,2013-03-07 17:22:00,
2013-03-07 11:32:00,33.0,28.0,30.17,SSE,165,9.0,12.0,80,0.00,,,0.00,,2013-03-07 17:32:00,
2013-03-07 11:43:00,33.0,28.0,30.17,SSE,165,9.0,12.0,80,0.00,,,0.00,,2013-03-07 17:43:00,
2013-03-07 11:54:00,33.0,28.0,30.16,SE,126,12.0,17.0,80,0.00,,,0.00,,2013-03-07 17:54:00,
2013-03-07 12:03:00,34.0,28.0,30.16,SE,134,13.0,17.0,80,0.00,,,0.00,,2013-03-07 18:03:00,
2013-03-07 12:12:00,34.0,28.0,30.16,SE,134,13.0,17.0,80,0.00,,,0.00,,2013-03-07 18:12:00,
2013-03-07 12:22:00,35.0,29.0,30.16,SSE,150,8.0,10.0,80,0.00,,,0.00,,2013-03-07 18:22:00,
2013-03-07 12:32:00,36.0,30.0,30.15,South,172,6.0,13.0,78,0.00,,,0.00,,2013-03-07 18:32:00,
2013-03-07 12:42:00,36.0,30.0,30.15,South,172,6.0,13.0,78,0.00,,,0.00,,2013-03-07 18:42:00,
2013-03-07 12:52:00,37.0,30.0,30.15,SE,144,8.0,13.0,76,0.00,,,0.00,,2013-03-07 18:52:00,
2013-03-07 13:03:00,38.0,30.0,30.14,SE,125,7.0,15.0,74,0.00,,,0.00,,2013-03-07 19:03:00,
2013-03-07 13:12:00,38.0,30.0,30.15,SE,140,7.0,16.0,74,0.00,,,0.00,,2013-03-07 19:12:00,
2013-03-07 13:23:00,38.0,30.0,30.15,SE,140,7.0,16.0,74,0.00,,,0.00,,2013-03-07 19:23:00,
2013-03-07 13:34:00,39.0,31.0,30.14,SSE,155,10.0,16.0,72,0.00,,,0.00,,2013-03-07 19:34:00,
2013-03-07 13:43:00,39.0,31.0,30.14,SSE,155,10.0,16.0,72,0.00,,,0.00,,2013-03-07 19:43:00,
2013-03-07 13:52:00,40.0,32.0,30.13,SSE,153,7.0,12.0,73,0.00,,,0.00,,2013-03-07 19:52:00,
2013-03-07 14:02:00,40.0,32.0,30.11,SE,128,14.0,17.0,72,0.00,,,0.00,,2013-03-07 20:02:00,
2013-03-07 14:13:00,40.0,32.0,30.11,SE,128,14.0,17.0,72,0.00,,,0.00,,2013-03-07 20:13:00,
2013-03-07 14:22:00,41.0,33.0,30.09,SE,132,12.0,16.0,72,0.00,,,0.00,,2013-03-07 20:22:00,
2013-03-07 14:33:00,41.0,32.0,30.09,SE,130,13.0,16.0,69,0.00,,,0.00,,2013-03-07 20:33:00,
2013-03-07 14:42:00,41.0,32.0,30.09,SE,130,13.0,16.0,69,0.00,,,0.00,,2013-03-07 20:42:00,
2013-03-07 14:53:00,42.0,32.0,30.09,SE,145,14.0,18.0,68,0.00,,,0.00,,2013-03-07 20:53:00,
2013-03-07 15:02:00,43.0,32.0,30.10,SSE,148,8.0,10.0,66,0.00,,,0.00,,2013-03-07 21:02:00,
2013-03-07 15:12:00,43.0,32.0,30.10,SSE,148,8.0,10.0,66,0.00,,,0.00,,2013-03-07 21:12:00,
2013-03-07 15:22:00,44.0,33.0,30.10,SE,133,10.0,14.0,64,0.00,,,0.00,,2013-03-07 21:22:00,
2013-03-07 15:32:00,44.0,33.0,30.10,SE,142,9.0,10.0,65,0.00,,,0.00,,2013-03-07 21:32:00,
2013-03-07 15:42:00,44.0,33.0,30.10,SE,142,9.0,10.0,65,0.00,,,0.00,,2013-03-07 21:42:00,
2013-03-07 15:52:00,44.0,33.0,30.10,SE,139,9.0,13.0,65,0.00,,,0.00,,2013-03-07 21:52:00,
2013-03-07 16:02:00,45.0,33.0,30.10,South,169,6.0,10.0,63,0.00,,,0.00,,2013-03-07 22:02:00,
2013-03-07 16:12:00,45.0,33.0,30.10,South,169,6.0,10.0,63,0.00,,,0.00,,2013-03-07 22:12:00,
2013-03-07 16:22:00,44.0,33.0,30.11,SSE,159,10.0,15.0,64,0.00,,,0.00,,2013-03-07 22:22:00,
2013-03-07 16:32:00,44.0,33.0,30.11,SSE,149,6.0,8.0,66,0.00,,,0.00,,2013-03-07 22:32:00,
2013-03-07 16:42:00,44.0,33.0,30.11,SSE,149,6.0,8.0,66,0.00,,,0.00,,2013-03-07 22:42:00,
2013-03-07 16:53:00,44.0,34.0,30.11,SE,146,8.0,10.0,67,0.00,,,0.00,,2013-03-07 22:53:00,
2013-03-07 17:02:00,43.0,34.0,30.10,SE,130,6.0,7.0,71,0.00,,,0.00,,2013-03-07 23:02:00,
2013-03-07 17:12:00,43.0,34.0,30.10,SE,130,6.0,7.0,71,0.00,,,0.00,,2013-03-07 23:12:00,
2013-03-07 17:22:00,43.0,35.0,30.10,SE,142,5.0,7.0,72,0.00,,,0.00,,2013-03-07 23:22:00,
2013-03-07 17:33:00,43.0,35.0,30.10,SE,141,5.0,6.0,74,0.00,,,0.00,,2013-03-07 23:33:00,
2013-03-07 17:42:00,43.0,35.0,30.10,SE,141,5.0,6.0,74,0.00,,,0.00,,2013-03-07 23:42:00,
2013-03-07 17:52:00,43.0,34.0,30.10,SE,136,7.0,7.0,71,0.00,,,0.00,,2013-03-07 23:52:00,
2013-03-07 18:04:00,42.0,34.0,30.11,SE,143,7.0,8.0,72,0.00,,,0.00,,2013-03-08 00:04:00,
2013-03-07 18:12:00,42.0,34.0,30.11,SE,143,7.0,8.0,72,0.00,,,0.00,,2013-03-08 00:12:00,
2013-03-07 18:23:00,42.0,34.0,30.11,SE,144,6.0,7.0,74,0.00,,,0.00,,2013-03-08 00:23:00,
2013-03-07 18:34:00,40.0,34.0,30.11,SE,128,9.0,10.0,80,0.00,,,0.00,,2013-03-08 00:34:00,
2013-03-07 18:43:00,40.0,34.0,30.11,SE,128,9.0,10.0,80,0.00,,,0.00,,2013-03-08 00:43:00,
2013-03-07 18:52:00,39.0,35.0,30.11,ESE,117,9.0,10.0,85,0.00,,,0.00,,2013-03-08 00:52:00,
2013-03-07 19:02:00,38.0,35.0,30.11,SE,124,8.0,12.0,88,0.00,,,0.00,,2013-03-08 01:02:00,
2013-03-07 19:11:00,38.0,35.0,30.11,SE,124,8.0,12.0,88,0.00,,,0.00,,2013-03-08 01:11:00,
2013-03-07 19:21:00,37.0,34.0,30.12,SE,128,8.0,12.0,89,0.00,,,0.00,,2013-03-08 01:21:00,
2013-03-07 19:32:00,37.0,34.0,30.12,SE,130,10.0,14.0,88,0.00,,,0.00,,2013-03-08 01:32:00,
2013-03-07 19:42:00,37.0,34.0,30.12,SE,130,10.0,14.0,88,0.00,,,0.00,,2013-03-08 01:42:00,
2013-03-07 19:51:00,36.0,33.0,30.12,SE,129,9.0,12.0,88,0.00,,,0.00,,2013-03-08 01:51:00,
2013-03-07 20:01:00,36.0,33.0,30.13,SE,129,9.0,13.0,88,0.00,,,0.00,,2013-03-08 02:01:00,
2013-03-07 20:11:00,36.0,33.0,30.13,SE,140,8.0,14.0,88,0.00,,,0.00,,2013-03-08 02:11:00,
2013-03-07 20:21:00,36.0,33.0,30.13,SE,140,8.0,14.0,88,0.00,,,0.00,,2013-03-08 02:21:00,
2013-03-07 20:32:00,36.0,33.0,30.14,SE,135,7.0,12.0,89,0.00,,,0.00,,2013-03-08 02:32:00,
2013-03-07 20:42:00,36.0,33.0,30.14,SE,135,7.0,12.0,89,0.00,,,0.00,,2013-03-08 02:42:00,
2013-03-07 20:52:00,36.0,33.0,30.14,SSE,150,5.0,6.0,90,0.00,,,0.00,,2013-03-08 02:52:00,
2013-03-07 21:02:00,35.0,33.0,30.15,SE,135,9.0,12.0,91,0.00,,,0.00,,2013-03-08 03:02:00,
2013-03-07 21:11:00,35.0,33.0,30.15,SE,135,9.0,12.0,91,0.00,,,0.00,,2013-03-08 03:11:00,
2013-03-07 21:22:00,35.0,33.0,30.15,SE,134,7.0,10.0,91,0.00,,,0.00,,2013-03-08 03:22:00,
2013-03-07 21:32:00,35.0,33.0,30.15,SSE,156,8.0,12.0,92,0.00,,,0.00,,2013-03-08 03:32:00,
2013-03-07 21:42:00,35.0,33.0,30.15,SSE,156,8.0,12.0,92,0.00,,,0.00,,2013-03-08 03:42:00,
2013-03-07 21:52:00,35.0,33.0,30.16,SE,132,7.0,9.0,93,0.00,,,0.00,,2013-03-08 03:52:00,
2013-03-07 22:01:00,34.0,32.0,30.15,SSE,154,7.0,8.0,94,0.00,,,0.00,,2013-03-08 04:01:00,
2013-03-07 22:11:00,34.0,33.0,30.16,SE,140,6.0,8.0,95,0.00,,,0.00,,2013-03-08 04:11:00,
2013-03-07 22:21:00,34.0,33.0,30.16,SE,140,6.0,8.0,95,0.00,,,0.00,,2013-03-08 04:21:00,
2013-03-07 22:32:00,33.0,32.0,30.16,SSE,158,5.0,7.0,96,0.00,,,0.00,,2013-03-08 04:32:00,
2013-03-07 22:42:00,33.0,32.0,30.16,SSE,158,5.0,7.0,96,0.00,,,0.00,,2013-03-08 04:42:00,
2013-03-07 22:52:00,33.0,32.0,30.16,SSE,149,5.0,7.0,96,0.00,,,0.00,,2013-03-08 04:52:00,
2013-03-07 23:02:00,33.0,32.0,30.17,SSE,149,5.0,7.0,96,0.00,,,0.00,,2013-03-08 05:02:00,
2013-03-07 23:12:00,33.0,32.0,30.17,SSE,149,5.0,7.0,96,0.00,,,0.00,,2013-03-08 05:12:00,
2013-03-07 23:22:00,33.0,32.0,30.18,SSE,157,3.0,7.0,96,0.00,,,0.00,,2013-03-08 05:22:00,
2013-03-07 23:32:00,32.0,31.0,30.18,SSE,152,5.0,6.0,96,0.00,,,0.00,,2013-03-08 05:32:00,
2013-03-07 23:42:00,32.0,31.0,30.18,SSE,152,5.0,6.0,96,0.00,,,0.00,,2013-03-08 05:42:00,
2013-03-07 23:52:00,32.0,31.0,30.18,SE,146,5.0,7.0,96,0.00,,,0.00,,2013-03-08 05:52:00,